createdAt,value
2023-04-30T00:02:22.907Z,5.60
2023-04-30T00:04:50.025Z,5.40
2023-04-30T00:07:17.112Z,5.40
2023-04-30T00:09:44.176Z,5.80
2023-04-30T00:12:11.285Z,5.50
2023-04-30T00:14:38.415Z,5.70
2023-04-30T00:17:05.502Z,5.90
2023-04-30T00:19:32.784Z,5.70
2023-04-30T00:22:01.860Z,6.00
2023-04-30T00:24:28.871Z,5.90
2023-04-30T00:26:56.055Z,5.70
2023-04-30T00:29:23.045Z,6.30
2023-04-30T00:31:50.138Z,6.00
2023-04-30T00:34:17.168Z,5.80
2023-04-30T00:36:44.193Z,5.90
2023-04-30T00:39:11.362Z,6.30
2023-04-30T00:41:38.440Z,5.70
2023-04-30T00:44:06.854Z,6.00
2023-04-30T00:46:33.910Z,6.20
2023-04-30T00:49:05.062Z,5.90
2023-04-30T00:51:32.912Z,6.00
2023-04-30T00:54:02.100Z,6.00
2023-04-30T00:56:31.167Z,6.10
2023-04-30T00:58:58.410Z,6.40
2023-04-30T01:01:26.564Z,6.10
2023-04-30T01:03:53.638Z,6.00
2023-04-30T01:06:20.809Z,6.20
2023-04-30T01:08:48.353Z,6.50
2023-04-30T01:11:57.985Z,6.60
2023-04-30T01:14:44.553Z,6.50
2023-04-30T01:17:30.422Z,6.00
2023-04-30T01:19:57.524Z,5.70
2023-04-30T01:22:51.694Z,5.40
2023-04-30T01:25:25.275Z,5.90
2023-04-30T01:28:16.669Z,5.80
2023-04-30T01:30:47.080Z,6.00
2023-04-30T01:33:14.363Z,5.70
2023-04-30T01:35:49.817Z,6.00
2023-04-30T01:38:21.245Z,6.20
2023-04-30T01:40:58.405Z,5.80
2023-04-30T01:43:54.889Z,6.40
2023-04-30T01:46:26.122Z,5.70
2023-04-30T01:49:09.125Z,5.80
2023-04-30T01:51:42.867Z,5.80
2023-04-30T01:54:22.305Z,5.70
2023-04-30T01:57:04.939Z,6.00
2023-04-30T01:59:36.086Z,6.00
2023-04-30T02:02:03.726Z,6.00
2023-04-30T02:04:30.849Z,5.90
2023-04-30T02:06:59.055Z,6.20
2023-04-30T02:09:26.700Z,6.40
2023-04-30T02:11:53.733Z,6.90
2023-04-30T02:14:20.761Z,7.00
2023-04-30T02:16:47.897Z,7.30
2023-04-30T02:19:15.515Z,7.60
2023-04-30T02:21:42.695Z,8.30
2023-04-30T02:24:09.768Z,8.50
2023-04-30T02:26:36.837Z,9.00
2023-04-30T02:29:03.969Z,9.30
2023-04-30T02:31:31.106Z,8.90
2023-04-30T02:33:58.134Z,8.80
2023-04-30T02:36:25.233Z,9.20
2023-04-30T02:38:52.533Z,9.30
2023-04-30T02:41:19.605Z,10.10
2023-04-30T02:43:46.668Z,9.30
2023-04-30T02:46:13.874Z,9.60
2023-04-30T02:48:41.040Z,9.40
2023-04-30T02:51:08.327Z,9.20
2023-04-30T02:53:35.825Z,9.20
2023-04-30T02:56:02.865Z,9.00
2023-04-30T02:58:29.991Z,8.60
2023-04-30T03:00:57.358Z,8.70
2023-04-30T03:03:24.541Z,8.30
2023-04-30T03:05:51.695Z,8.10
2023-04-30T03:08:18.671Z,8.20
2023-04-30T03:10:45.792Z,8.70
2023-04-30T03:13:12.801Z,8.20
2023-04-30T03:15:39.785Z,7.80
2023-04-30T03:18:06.948Z,7.50
2023-04-30T03:20:34.089Z,7.60
2023-04-30T03:23:01.111Z,7.80
2023-04-30T03:25:28.285Z,7.00
2023-04-30T03:27:57.122Z,7.10
2023-04-30T03:30:26.170Z,6.90
2023-04-30T03:32:53.280Z,6.90
2023-04-30T03:35:20.664Z,6.70
2023-04-30T03:37:47.808Z,7.10
2023-04-30T03:40:14.932Z,6.50
2023-04-30T03:42:42.007Z,6.30
2023-04-30T03:45:09.396Z,5.90
2023-04-30T03:47:36.793Z,5.90
2023-04-30T03:50:04.271Z,5.70
2023-04-30T03:52:31.656Z,5.40
2023-04-30T03:54:58.749Z,5.50
2023-04-30T03:57:25.886Z,5.40
2023-04-30T03:59:53.144Z,5.60
2023-04-30T04:02:21.773Z,5.20
2023-04-30T04:04:48.947Z,5.30
2023-04-30T04:07:16.152Z,5.10
2023-04-30T04:09:43.275Z,4.70
2023-04-30T04:12:10.435Z,4.80
2023-04-30T04:14:37.499Z,4.90
2023-04-30T04:17:06.155Z,5.10
2023-04-30T04:19:33.296Z,4.70
2023-04-30T04:22:01.098Z,4.80
2023-04-30T04:24:28.667Z,4.80
2023-04-30T04:26:56.398Z,4.80
2023-04-30T04:29:23.750Z,4.80
2023-04-30T04:31:51.766Z,5.00
2023-04-30T04:34:20.325Z,4.70
2023-04-30T04:36:47.952Z,5.00
2023-04-30T04:39:15.170Z,4.70
2023-04-30T04:41:42.789Z,4.40
2023-04-30T04:44:09.899Z,4.40
2023-04-30T04:46:38.857Z,4.50
2023-04-30T04:49:06.168Z,4.30
2023-04-30T04:51:33.217Z,4.00
2023-04-30T04:54:00.963Z,4.20
2023-04-30T04:56:28.141Z,4.20
2023-04-30T04:58:55.195Z,3.90
2023-04-30T05:01:22.315Z,4.30
2023-04-30T05:03:49.949Z,4.00
2023-04-30T05:06:19.356Z,3.70
2023-04-30T05:08:46.673Z,3.90
2023-04-30T05:11:15.631Z,3.70
2023-04-30T05:13:42.989Z,3.70
2023-04-30T05:16:10.148Z,3.80
2023-04-30T05:18:37.264Z,3.60
2023-04-30T05:21:04.628Z,3.60
2023-04-30T05:23:32.590Z,3.30
2023-04-30T05:25:59.615Z,3.40
2023-04-30T05:28:26.885Z,3.50
2023-04-30T05:30:53.974Z,3.60
2023-04-30T05:33:20.968Z,3.50
2023-04-30T05:35:48.034Z,3.60
2023-04-30T05:38:15.138Z,3.70
2023-04-30T05:40:42.232Z,3.40
2023-04-30T05:43:09.312Z,3.60
2023-04-30T05:45:36.336Z,3.20
2023-04-30T05:48:03.503Z,3.50
2023-04-30T05:50:30.569Z,3.40
2023-04-30T05:52:57.587Z,2.90
2023-04-30T05:55:24.614Z,2.70
2023-04-30T05:57:51.616Z,2.70
2023-04-30T06:00:18.816Z,3.20
2023-04-30T06:02:46.173Z,2.90
2023-04-30T06:05:15.946Z,3.10
2023-04-30T06:07:43.508Z,3.20
2023-04-30T06:10:10.830Z,3.10
2023-04-30T06:12:38.028Z,3.60
2023-04-30T06:15:06.867Z,3.00
2023-04-30T06:17:33.999Z,3.00
2023-04-30T06:20:04.943Z,2.90
2023-04-30T06:22:31.916Z,3.00
2023-04-30T06:24:59.008Z,2.70
2023-04-30T06:27:28.264Z,2.70
2023-04-30T06:29:55.600Z,3.00
2023-04-30T06:32:22.993Z,2.80
2023-04-30T06:34:49.985Z,3.00
2023-04-30T06:37:17.300Z,3.00
2023-04-30T06:39:44.999Z,2.80
2023-04-30T06:42:12.017Z,2.80
2023-04-30T06:44:39.012Z,2.70
2023-04-30T06:47:06.112Z,2.70
2023-04-30T06:49:33.229Z,2.70
2023-04-30T06:52:00.225Z,3.00
2023-04-30T06:54:27.979Z,2.80
2023-04-30T06:56:54.984Z,3.00
2023-04-30T06:59:22.129Z,2.80
2023-04-30T07:01:49.188Z,3.00
2023-04-30T07:04:16.389Z,3.00
2023-04-30T07:06:43.651Z,3.10
2023-04-30T07:09:11.790Z,2.90
2023-04-30T07:11:40.213Z,3.00
2023-04-30T07:14:07.377Z,3.10
2023-04-30T07:16:34.513Z,3.10
2023-04-30T07:19:01.718Z,3.10
2023-04-30T07:21:28.843Z,3.10
2023-04-30T07:23:56.039Z,3.20
2023-04-30T07:26:25.241Z,3.30
2023-04-30T07:28:52.369Z,3.20
2023-04-30T07:31:19.513Z,3.60
2023-04-30T07:33:46.967Z,3.30
2023-04-30T07:36:14.173Z,3.70
2023-04-30T07:38:41.235Z,3.30
2023-04-30T07:41:10.823Z,3.00
2023-04-30T07:43:37.892Z,3.40
2023-04-30T07:46:05.015Z,3.30
2023-04-30T07:48:32.111Z,3.00
2023-04-30T07:50:59.135Z,3.50
2023-04-30T07:53:26.164Z,3.30
2023-04-30T07:55:53.298Z,3.20
2023-04-30T07:58:20.505Z,3.30
2023-04-30T08:00:48.103Z,3.20
2023-04-30T08:03:15.335Z,2.80
2023-04-30T08:05:42.503Z,2.90
2023-04-30T08:08:09.592Z,2.90
2023-04-30T08:10:37.583Z,2.80
2023-04-30T08:13:05.485Z,2.60
2023-04-30T08:15:34.267Z,2.80
2023-04-30T08:18:02.717Z,2.90
2023-04-30T08:20:29.842Z,2.70
2023-04-30T08:22:56.842Z,2.80
2023-04-30T08:25:23.991Z,2.70
2023-04-30T08:27:51.084Z,9.30
2023-04-30T08:30:18.117Z,9.70
2023-04-30T08:32:45.299Z,9.30
2023-04-30T08:35:12.355Z,9.60
2023-04-30T08:37:39.462Z,8.60
2023-04-30T08:40:09.876Z,20.00
2023-04-30T08:42:37.443Z,25.60
2023-04-30T08:52:38.598Z,16.40
2023-04-30T08:55:08.046Z,15.60
2023-04-30T08:57:36.118Z,18.60
2023-04-30T09:00:04.301Z,20.40
2023-04-30T09:02:33.364Z,20.60
2023-04-30T09:05:00.562Z,25.60
2023-04-30T09:07:29.379Z,26.70
2023-04-30T09:09:56.735Z,28.30
2023-04-30T09:12:23.922Z,27.20
2023-04-30T09:15:09.210Z,27.40
2023-04-30T09:17:36.547Z,27.80
2023-04-30T09:20:11.678Z,27.00
2023-04-30T09:22:40.327Z,21.50
2023-04-30T09:25:09.465Z,21.20
2023-04-30T09:27:36.620Z,21.40
2023-04-30T09:30:04.005Z,20.20
2023-04-30T09:32:31.038Z,20.80
2023-04-30T09:34:58.793Z,21.20
2023-04-30T09:37:39.340Z,22.80
2023-04-30T09:40:08.430Z,22.00
2023-04-30T09:42:35.813Z,23.20
2023-04-30T09:45:03.297Z,23.80
2023-04-30T09:47:32.035Z,24.10
2023-04-30T09:49:59.919Z,24.30
2023-04-30T09:52:27.227Z,23.90
2023-04-30T09:54:54.313Z,25.60
2023-04-30T09:59:16.602Z,26.10
2023-04-30T10:01:43.687Z,26.50
2023-04-30T10:04:11.731Z,25.30
2023-04-30T10:06:39.053Z,26.90
2023-04-30T10:09:06.453Z,29.40
2023-04-30T10:11:34.038Z,33.30
2023-04-30T10:14:04.872Z,29.00
2023-04-30T10:16:56.083Z,31.60
2023-04-30T10:19:26.100Z,29.60
2023-04-30T10:21:53.231Z,26.60
2023-04-30T10:24:20.999Z,25.30
2023-04-30T10:26:48.503Z,24.40
2023-04-30T10:29:17.024Z,24.10
2023-04-30T10:31:48.667Z,23.30
2023-04-30T10:34:51.112Z,24.60
2023-04-30T10:37:22.777Z,25.60
2023-04-30T10:39:51.086Z,23.60
2023-04-30T10:42:18.225Z,26.50
2023-04-30T10:44:45.319Z,32.50
2023-04-30T10:47:12.564Z,32.20
2023-04-30T10:49:41.331Z,32.20
2023-04-30T10:52:08.307Z,32.90
2023-04-30T10:54:36.278Z,28.10
2023-04-30T10:57:12.124Z,28.60
2023-04-30T10:59:39.637Z,23.90
2023-04-30T11:02:07.039Z,25.00
2023-04-30T11:04:34.199Z,29.10
2023-04-30T11:07:04.099Z,34.00
2023-04-30T11:09:44.620Z,29.70
2023-04-30T11:12:29.896Z,29.80
2023-04-30T11:15:07.315Z,28.60
2023-04-30T11:17:34.534Z,27.10
2023-04-30T11:20:02.251Z,24.20
2023-04-30T11:22:36.458Z,16.10
2023-04-30T11:25:09.947Z,11.00
2023-04-30T11:27:38.352Z,11.40
2023-04-30T11:30:19.380Z,10.30
2023-04-30T11:32:48.160Z,9.70
2023-04-30T11:35:18.718Z,10.20
2023-04-30T11:37:45.932Z,9.20
2023-04-30T11:40:14.391Z,9.80
2023-04-30T11:42:46.012Z,7.80
2023-04-30T11:45:17.925Z,7.70
2023-04-30T11:47:49.620Z,5.80
2023-04-30T11:50:19.413Z,4.60
2023-04-30T11:52:50.656Z,6.10
2023-04-30T11:55:18.984Z,7.10
2023-04-30T11:57:47.590Z,9.30
2023-04-30T12:00:16.454Z,8.90
2023-04-30T12:02:46.091Z,12.60
2023-04-30T12:05:20.703Z,8.80
2023-04-30T12:07:56.246Z,7.80
2023-04-30T12:10:24.965Z,7.20
2023-04-30T12:12:53.388Z,6.80
2023-04-30T12:15:29.342Z,6.40
2023-04-30T12:17:57.474Z,5.80
2023-04-30T12:20:27.188Z,6.00
2023-04-30T12:22:54.265Z,4.50
2023-04-30T12:25:22.247Z,4.50
2023-04-30T12:27:51.204Z,5.60
2023-04-30T12:30:22.359Z,4.80
2023-04-30T12:32:51.685Z,4.10
2023-04-30T12:35:21.178Z,3.20
2023-04-30T12:37:52.491Z,3.40
2023-04-30T12:40:20.976Z,2.10
2023-04-30T12:42:48.160Z,2.20
2023-04-30T12:45:43.996Z,2.20
2023-04-30T12:48:14.282Z,2.20
2023-04-30T12:50:41.699Z,2.00
2023-04-30T12:53:09.022Z,2.00
2023-04-30T12:55:38.039Z,1.80
2023-04-30T12:58:13.960Z,1.90
2023-04-30T13:00:51.197Z,1.90
2023-04-30T13:03:20.326Z,2.00
2023-04-30T13:05:52.185Z,1.80
2023-04-30T13:08:19.854Z,2.00
2023-04-30T13:10:48.063Z,1.60
2023-04-30T13:13:16.351Z,1.60
2023-04-30T13:15:43.666Z,1.60
2023-04-30T13:18:10.825Z,1.30
2023-04-30T13:20:38.262Z,1.50
2023-04-30T13:23:06.602Z,1.20
2023-04-30T13:25:34.191Z,1.30
2023-04-30T13:28:01.511Z,1.30
2023-04-30T13:30:29.214Z,1.30
2023-04-30T13:32:56.690Z,1.30
2023-04-30T13:35:23.972Z,1.20
2023-04-30T13:37:52.854Z,1.20
2023-04-30T13:40:20.406Z,1.10
2023-04-30T13:42:48.235Z,0.90
2023-04-30T13:45:15.752Z,1.10
2023-04-30T13:47:42.825Z,1.30
2023-04-30T13:50:10.640Z,0.80
2023-04-30T13:52:38.330Z,0.80
2023-04-30T13:55:06.280Z,0.70
2023-04-30T13:57:33.374Z,0.70
2023-04-30T14:00:00.601Z,1.00
2023-04-30T14:02:30.722Z,0.80
2023-04-30T14:05:05.985Z,0.90
2023-04-30T14:07:33.748Z,0.80
2023-04-30T14:10:02.699Z,0.90
2023-04-30T14:12:30.917Z,0.80
2023-04-30T14:14:58.153Z,0.80
2023-04-30T14:17:27.166Z,0.70
2023-04-30T14:19:55.031Z,0.80
2023-04-30T14:22:22.268Z,0.80
2023-04-30T14:24:49.257Z,0.90
2023-04-30T14:27:16.246Z,0.80
2023-04-30T14:29:43.925Z,0.80
2023-04-30T14:32:10.999Z,0.90
2023-04-30T14:34:38.592Z,0.60
2023-04-30T14:37:05.699Z,0.70
2023-04-30T14:39:32.734Z,0.80
2023-04-30T14:41:59.796Z,0.80
2023-04-30T14:44:27.122Z,0.70
2023-04-30T14:46:54.751Z,0.80
2023-04-30T14:49:21.870Z,0.80
2023-04-30T14:51:49.037Z,0.90
2023-04-30T14:54:16.655Z,0.80
2023-04-30T14:56:44.624Z,0.90
2023-04-30T14:59:12.164Z,0.60
2023-04-30T15:01:39.265Z,0.80
2023-04-30T15:04:07.296Z,0.90
2023-04-30T15:06:34.379Z,1.00
2023-04-30T15:09:01.924Z,0.80
2023-04-30T15:11:28.971Z,0.90
2023-04-30T15:13:55.968Z,0.90
2023-04-30T15:16:24.010Z,0.80
2023-04-30T15:18:51.340Z,1.00
2023-04-30T15:21:18.773Z,0.90
2023-04-30T15:23:46.192Z,1.00
2023-04-30T15:26:13.286Z,1.00
2023-04-30T15:28:40.320Z,1.10
2023-04-30T15:31:07.513Z,0.80
2023-04-30T15:33:39.701Z,0.90
2023-04-30T15:36:06.877Z,1.00
2023-04-30T15:38:34.677Z,1.00
2023-04-30T15:41:01.753Z,1.00
2023-04-30T15:43:30.238Z,1.10
2023-04-30T15:45:57.379Z,1.00
2023-04-30T15:48:25.760Z,1.10
2023-04-30T15:50:53.023Z,1.00
2023-04-30T15:53:20.084Z,1.10
2023-04-30T15:55:48.958Z,1.00
2023-04-30T15:58:16.438Z,1.00
2023-04-30T16:00:43.760Z,0.90
2023-04-30T16:03:12.228Z,1.10
2023-04-30T16:05:40.708Z,0.90
2023-04-30T16:08:08.386Z,1.00
2023-04-30T16:10:36.200Z,1.00
2023-04-30T16:13:03.334Z,1.20
2023-04-30T16:15:30.578Z,0.90
2023-04-30T16:17:57.773Z,0.80
2023-04-30T16:20:25.042Z,0.80
2023-04-30T16:22:52.881Z,0.90
2023-04-30T16:25:20.999Z,1.00
2023-04-30T16:27:48.259Z,1.00
2023-04-30T16:30:15.608Z,0.80
2023-04-30T16:32:42.616Z,1.00
2023-04-30T16:35:09.944Z,0.80
2023-04-30T16:37:37.077Z,0.80
2023-04-30T16:40:06.535Z,1.10
2023-04-30T16:42:34.213Z,0.90
2023-04-30T16:45:01.801Z,1.00
2023-04-30T16:47:28.898Z,1.00
2023-04-30T16:49:58.634Z,1.00
2023-04-30T16:52:25.963Z,1.20
2023-04-30T16:54:53.335Z,1.20
2023-04-30T16:57:20.416Z,1.10
2023-04-30T16:59:47.623Z,1.10
2023-04-30T17:02:14.790Z,1.00
2023-04-30T17:04:42.268Z,1.00
2023-04-30T17:07:09.301Z,1.00
2023-04-30T17:09:37.968Z,1.10
2023-04-30T17:12:05.732Z,0.90
2023-04-30T17:14:32.799Z,1.10
2023-04-30T17:16:59.937Z,1.00
2023-04-30T17:19:26.950Z,0.90
2023-04-30T17:21:54.066Z,1.00
2023-04-30T17:24:21.306Z,0.90
2023-04-30T17:26:49.393Z,1.00
2023-04-30T17:29:16.843Z,1.00
2023-04-30T17:31:44.432Z,1.00
2023-04-30T17:34:11.748Z,0.90
2023-04-30T17:36:39.236Z,1.20
2023-04-30T17:39:06.243Z,1.80
2023-04-30T17:41:33.367Z,1.60
2023-04-30T17:44:00.836Z,1.20
2023-04-30T17:46:28.322Z,1.30
2023-04-30T17:48:55.429Z,1.30
2023-04-30T17:51:23.153Z,0.90
2023-04-30T17:53:50.164Z,1.10
2023-04-30T17:56:17.325Z,1.20
2023-04-30T17:58:46.082Z,1.30
2023-04-30T18:01:13.604Z,1.10
2023-04-30T18:03:40.852Z,1.20
2023-04-30T18:06:08.158Z,1.00
2023-04-30T18:08:35.608Z,1.10
2023-04-30T18:11:05.336Z,0.80
2023-04-30T18:13:32.977Z,0.90
2023-04-30T18:16:00.118Z,1.10
2023-04-30T18:18:27.192Z,1.10
2023-04-30T18:20:54.288Z,1.10
2023-04-30T18:23:22.429Z,1.00
2023-04-30T18:25:49.700Z,1.20
2023-04-30T18:28:16.733Z,0.90
2023-04-30T18:30:44.325Z,1.00
2023-04-30T18:33:11.699Z,1.00
2023-04-30T18:35:38.845Z,0.90
2023-04-30T18:38:08.294Z,1.00
2023-04-30T18:40:35.503Z,1.10
2023-04-30T18:43:02.672Z,1.10
2023-04-30T18:45:30.472Z,1.10
2023-04-30T18:47:57.783Z,1.20
2023-04-30T18:50:25.907Z,1.30
2023-04-30T18:52:54.450Z,1.10
2023-04-30T18:55:23.202Z,1.30
2023-04-30T18:57:50.985Z,1.20
2023-04-30T19:00:18.333Z,1.20
2023-04-30T19:02:45.927Z,1.00
2023-04-30T19:05:14.625Z,1.10
2023-04-30T19:07:42.011Z,1.30
2023-04-30T19:10:10.894Z,2.00
2023-04-30T19:12:38.581Z,2.50
2023-04-30T19:15:08.489Z,4.90
2023-04-30T19:17:35.870Z,4.90
2023-04-30T19:20:03.149Z,4.30
2023-04-30T19:22:30.190Z,3.40
2023-04-30T19:24:57.176Z,2.70
2023-04-30T19:27:24.191Z,1.50
2023-04-30T19:29:53.006Z,1.10
2023-04-30T19:32:21.077Z,1.00
2023-04-30T19:34:48.278Z,1.20
2023-04-30T19:37:15.318Z,1.30
2023-04-30T19:39:42.566Z,0.90
2023-04-30T19:42:09.603Z,0.80
2023-04-30T19:44:36.766Z,0.90
2023-04-30T19:47:05.054Z,0.90
2023-04-30T19:49:33.748Z,0.80
2023-04-30T19:52:01.604Z,1.20
2023-04-30T19:54:28.614Z,0.90
2023-04-30T19:56:55.671Z,1.00
2023-04-30T19:59:22.720Z,1.10
2023-04-30T20:01:49.792Z,1.10
2023-04-30T20:04:16.902Z,1.20
2023-04-30T20:06:44.957Z,1.20
2023-04-30T20:09:12.151Z,1.10
2023-04-30T20:11:39.274Z,1.00
2023-04-30T20:14:06.471Z,1.20
2023-04-30T20:16:33.624Z,1.10
2023-04-30T20:19:00.751Z,1.30
2023-04-30T20:21:29.216Z,1.50
2023-04-30T20:23:56.280Z,3.30
2023-04-30T20:26:25.852Z,4.10
2023-04-30T20:28:53.669Z,3.70
2023-04-30T20:31:21.442Z,3.80
2023-04-30T20:33:48.464Z,4.10
2023-04-30T20:36:16.828Z,4.80
2023-04-30T20:38:44.081Z,5.70
2023-04-30T20:41:11.253Z,7.00
2023-04-30T20:43:38.402Z,6.30
2023-04-30T20:46:05.592Z,8.50
2023-04-30T20:48:32.653Z,7.30
2023-04-30T20:50:59.734Z,6.90
2023-04-30T20:53:26.788Z,11.30
2023-04-30T20:55:59.906Z,17.30
2023-04-30T21:00:57.021Z,22.40
2023-04-30T21:03:24.534Z,26.40
2023-04-30T21:06:17.850Z,26.50
2023-04-30T21:08:45.127Z,25.80
2023-04-30T21:11:14.338Z,25.60
2023-04-30T21:13:42.052Z,26.50
2023-04-30T21:16:09.165Z,25.60
2023-04-30T21:18:36.785Z,24.30
2023-04-30T21:21:07.833Z,22.70
2023-04-30T21:23:35.461Z,20.60
2023-04-30T21:26:02.597Z,11.80
2023-04-30T21:28:29.596Z,7.50
2023-04-30T21:30:56.871Z,5.70
2023-04-30T21:33:23.943Z,6.20
2023-04-30T21:35:50.927Z,9.90
2023-04-30T21:38:17.889Z,11.70
2023-04-30T21:40:44.973Z,12.40
2023-04-30T21:43:12.198Z,12.70
2023-04-30T21:45:41.488Z,12.70
2023-04-30T21:48:10.420Z,12.60
2023-04-30T21:50:38.815Z,13.10
2023-04-30T21:53:05.924Z,13.60
2023-04-30T21:55:32.962Z,14.60
2023-04-30T21:58:00.008Z,15.90
2023-04-30T22:00:28.330Z,18.40
2023-04-30T22:02:55.939Z,17.30
2023-04-30T22:05:23.028Z,16.70
2023-04-30T22:07:50.104Z,15.60
2023-04-30T22:10:17.224Z,16.20
2023-04-30T22:12:47.357Z,17.60
2023-04-30T22:17:17.125Z,17.20
2023-04-30T22:19:44.117Z,13.40
2023-04-30T22:22:11.901Z,23.80
2023-04-30T22:24:38.980Z,26.40
2023-04-30T22:27:06.299Z,23.60
2023-04-30T22:29:33.742Z,20.20
2023-04-30T22:32:01.801Z,19.10
2023-04-30T22:34:29.091Z,24.80
2023-04-30T22:36:56.753Z,25.00
2023-04-30T22:39:23.794Z,23.20
2023-04-30T22:41:50.878Z,22.50
2023-04-30T22:44:17.849Z,21.90
2023-04-30T22:46:45.019Z,23.60
2023-04-30T22:49:27.374Z,25.90
2023-04-30T22:51:57.635Z,13.50
2023-04-30T22:54:24.672Z,8.50
2023-04-30T22:56:51.699Z,5.00
2023-04-30T22:59:18.741Z,3.40
2023-04-30T23:01:45.793Z,3.20
2023-04-30T23:04:13.887Z,1.90
2023-04-30T23:06:43.046Z,1.50
2023-04-30T23:09:10.378Z,1.70
2023-04-30T23:11:37.437Z,1.30
2023-04-30T23:14:04.881Z,1.80
2023-04-30T23:16:32.086Z,1.90
2023-04-30T23:18:59.237Z,2.30
2023-04-30T23:21:26.932Z,3.60
2023-04-30T23:23:53.967Z,3.70
2023-04-30T23:26:21.437Z,2.90
2023-04-30T23:28:48.613Z,2.30
2023-04-30T23:31:15.690Z,2.00
2023-04-30T23:33:42.714Z,1.90
2023-04-30T23:36:09.773Z,2.00
2023-04-30T23:38:37.120Z,2.10
2023-04-30T23:41:04.263Z,2.00
2023-04-30T23:43:32.920Z,2.10
2023-04-30T23:46:00.390Z,4.50
2023-04-30T23:48:27.569Z,9.10
2023-04-30T23:51:05.059Z,12.60
2023-04-30T23:53:32.513Z,17.90
2023-04-30T23:55:59.710Z,19.60
2023-04-30T23:58:27.180Z,19.70
